createdAt,value
2022-08-17T00:01:24.126Z,65.17
2022-08-17T00:06:31.198Z,65.15
2022-08-17T00:11:36.297Z,64.96
2022-08-17T00:16:55.529Z,65.02
2022-08-17T00:22:31.974Z,65.26
2022-08-17T00:27:22.232Z,65.11
2022-08-17T00:33:14.072Z,65.05
2022-08-17T00:37:45.363Z,64.65
2022-08-17T00:42:48.091Z,64.56
2022-08-17T00:47:49.665Z,64.89
2022-08-17T00:52:56.004Z,65.26
2022-08-17T00:58:01.531Z,65.36
2022-08-17T01:03:11.855Z,65.17
2022-08-17T01:08:17.098Z,64.91
2022-08-17T01:13:19.946Z,65.05
2022-08-17T01:18:21.694Z,65.49
2022-08-17T01:23:25.391Z,65.32
2022-08-17T01:28:53.030Z,65.76
2022-08-17T01:33:53.269Z,67.73
2022-08-17T01:38:55.000Z,67.48
2022-08-17T01:44:03.278Z,68.83
2022-08-17T01:49:10.750Z,70.24
2022-08-17T01:54:16.294Z,71.30
2022-08-17T01:59:20.084Z,70.30
2022-08-17T02:04:21.756Z,71.00
2022-08-17T02:09:28.877Z,71.76
2022-08-17T02:14:31.577Z,71.93
2022-08-17T02:19:33.270Z,72.32
2022-08-17T02:24:58.894Z,73.00
2022-08-17T02:29:58.729Z,73.92
2022-08-17T02:35:00.912Z,74.41
2022-08-17T02:40:03.007Z,74.80
2022-08-17T02:45:11.119Z,74.25
2022-08-17T02:50:15.768Z,73.78
2022-08-17T03:01:21.620Z,75.10
2022-08-17T03:06:25.811Z,75.42
2022-08-17T03:11:27.376Z,77.56
2022-08-17T03:16:28.925Z,78.31
2022-08-17T03:21:30.507Z,78.30
2022-08-17T03:26:32.313Z,79.05
2022-08-17T03:31:33.918Z,79.93
2022-08-17T03:36:38.771Z,80.02
2022-08-17T03:41:40.326Z,80.50
2022-08-17T03:47:00.230Z,80.65
2022-08-17T03:52:21.770Z,81.14
2022-08-17T04:03:32.096Z,81.01
2022-08-17T04:14:53.445Z,80.95
2022-08-17T04:19:56.650Z,81.03
2022-08-17T04:24:58.785Z,81.16
2022-08-17T04:30:01.520Z,80.87
2022-08-17T04:35:03.242Z,80.54
2022-08-17T04:40:27.187Z,80.22
2022-08-17T04:45:31.976Z,79.42
2022-08-17T04:50:35.754Z,78.26
2022-08-17T04:55:37.570Z,77.73
2022-08-17T05:00:40.895Z,77.04
2022-08-17T05:05:49.545Z,76.56
2022-08-17T05:10:52.034Z,76.46
2022-08-17T05:15:56.946Z,76.62
2022-08-17T05:20:58.602Z,75.70
2022-08-17T05:26:00.224Z,75.22
2022-08-17T05:31:03.934Z,74.69
2022-08-17T05:36:10.699Z,74.02
2022-08-17T05:41:32.331Z,73.26
2022-08-17T05:46:40.198Z,72.50
2022-08-17T05:52:06.348Z,72.02
2022-08-17T05:57:32.408Z,70.91
2022-08-17T06:03:04.291Z,68.99
2022-08-17T06:08:23.494Z,68.24
2022-08-17T06:13:27.894Z,67.92
2022-08-17T06:18:57.021Z,67.07
2022-08-17T06:24:25.058Z,67.19
2022-08-17T06:29:39.546Z,67.52
2022-08-17T06:34:43.615Z,68.13
2022-08-17T06:39:52.304Z,68.59
2022-08-17T06:45:05.973Z,69.08
2022-08-17T06:50:27.356Z,69.10
2022-08-17T06:55:38.280Z,69.17
2022-08-17T07:00:44.255Z,69.94
2022-08-17T07:05:51.712Z,71.80
2022-08-17T07:10:57.770Z,71.81
2022-08-17T07:16:17.015Z,71.95
2022-08-17T07:21:41.254Z,71.32
2022-08-17T07:26:42.800Z,70.79
2022-08-17T07:31:46.109Z,69.92
2022-08-17T07:36:48.313Z,69.99
2022-08-17T07:41:57.167Z,68.72
2022-08-17T07:47:19.018Z,68.14
2022-08-17T07:52:50.524Z,68.65
2022-08-17T07:57:57.715Z,69.69
2022-08-17T08:03:25.967Z,70.95
2022-08-17T08:08:50.405Z,71.05
2022-08-17T08:13:52.127Z,71.96
2022-08-17T08:18:57.960Z,72.25
2022-08-17T08:24:17.788Z,74.53
2022-08-17T08:29:19.306Z,75.23
2022-08-17T08:35:01.470Z,74.61
2022-08-17T08:40:31.981Z,73.41
2022-08-17T08:45:33.472Z,72.83
2022-08-17T08:50:48.168Z,71.32
2022-08-17T08:55:58.963Z,69.16
2022-08-17T09:01:20.829Z,67.63
2022-08-17T09:06:47.047Z,66.48
2022-08-17T09:12:02.282Z,65.70
2022-08-17T09:17:46.870Z,67.35
2022-08-17T09:22:53.517Z,69.48
2022-08-17T09:27:55.006Z,70.70
2022-08-17T09:33:00.196Z,73.71
2022-08-17T09:38:11.631Z,74.97
2022-08-17T09:43:30.672Z,76.30
2022-08-17T09:48:42.704Z,75.51
2022-08-17T09:53:44.852Z,76.24
2022-08-17T09:59:05.175Z,76.08
2022-08-17T10:04:32.167Z,77.22
2022-08-17T10:09:45.797Z,77.61
2022-08-17T10:15:08.047Z,77.94
2022-08-17T10:20:20.479Z,76.11
2022-08-17T10:25:54.785Z,73.87
2022-08-17T10:31:32.986Z,71.64
2022-08-17T10:36:41.368Z,69.63
2022-08-17T10:41:49.402Z,67.70
2022-08-17T10:47:05.507Z,66.75
2022-08-17T10:52:42.394Z,65.79
2022-08-17T10:57:50.206Z,65.15
2022-08-17T11:02:55.011Z,64.64
2022-08-17T11:07:58.485Z,64.13
2022-08-17T11:13:26.769Z,62.73
2022-08-17T11:18:40.169Z,61.45
2022-08-17T11:24:12.627Z,60.42
2022-08-17T11:29:50.676Z,59.50
2022-08-17T11:35:21.079Z,58.13
2022-08-17T11:40:47.482Z,57.52
2022-08-17T11:45:51.744Z,55.93
2022-08-17T11:51:19.063Z,54.35
2022-08-17T11:56:41.250Z,53.00
2022-08-17T12:01:57.061Z,53.67
2022-08-17T12:07:19.030Z,55.01
2022-08-17T12:12:29.803Z,55.71
2022-08-17T12:17:39.732Z,55.26
2022-08-17T12:22:54.747Z,55.45
2022-08-17T12:28:06.523Z,55.46
2022-08-17T12:33:13.692Z,53.81
2022-08-17T12:38:34.778Z,53.12
2022-08-17T12:43:36.487Z,52.43
2022-08-17T12:48:38.060Z,51.48
2022-08-17T12:53:42.429Z,51.45
2022-08-17T12:58:55.585Z,49.69
2022-08-17T13:04:00.162Z,49.63
2022-08-17T13:09:20.424Z,49.88
2022-08-17T13:14:22.517Z,48.82
2022-08-17T13:19:29.877Z,48.42
2022-08-17T13:24:53.287Z,48.02
2022-08-17T13:30:02.239Z,47.88
2022-08-17T13:35:40.955Z,48.14
2022-08-17T13:40:49.928Z,48.19
2022-08-17T13:45:52.353Z,48.49
2022-08-17T13:50:56.961Z,47.82
2022-08-17T13:56:07.395Z,47.07
2022-08-17T14:01:32.769Z,47.13
2022-08-17T14:06:53.218Z,46.14
2022-08-17T14:11:57.760Z,46.57
2022-08-17T14:16:59.353Z,46.35
2022-08-17T14:22:01.133Z,45.61
2022-08-17T14:27:05.328Z,45.53
2022-08-17T14:32:17.093Z,45.19
2022-08-17T14:37:20.408Z,46.31
2022-08-17T14:42:27.146Z,45.80
2022-08-17T14:47:28.694Z,45.75
2022-08-17T14:52:30.549Z,45.49
2022-08-17T14:57:34.621Z,45.73
2022-08-17T15:02:54.650Z,44.28
2022-08-17T15:07:56.220Z,44.45
2022-08-17T15:12:58.293Z,44.59
2022-08-17T15:18:00.383Z,43.68
2022-08-17T15:23:02.216Z,42.85
2022-08-17T15:28:04.166Z,41.91
2022-08-17T15:33:05.770Z,42.17
2022-08-17T15:38:11.965Z,42.59
2022-08-17T15:43:27.331Z,41.93
2022-08-17T15:48:41.718Z,42.48
2022-08-17T15:53:46.888Z,42.60
2022-08-17T15:58:49.420Z,42.92
2022-08-17T16:04:05.247Z,42.40
2022-08-17T16:09:08.905Z,42.02
2022-08-17T16:14:10.439Z,41.76
2022-08-17T16:19:15.320Z,42.03
2022-08-17T16:24:16.900Z,42.46
2022-08-17T16:29:18.509Z,43.25
2022-08-17T16:34:21.029Z,44.23
2022-08-17T16:39:24.571Z,45.37
2022-08-17T16:44:27.444Z,45.10
2022-08-17T16:49:36.974Z,44.61
2022-08-17T16:54:43.461Z,45.53
2022-08-17T16:59:50.154Z,45.99
2022-08-17T17:05:03.069Z,46.14
2022-08-17T17:10:16.987Z,46.98
2022-08-17T17:15:22.136Z,47.84
2022-08-17T17:20:28.914Z,47.87
2022-08-17T17:25:40.672Z,48.60
2022-08-17T17:30:47.098Z,48.67
2022-08-17T17:35:59.138Z,48.34
2022-08-17T17:41:05.487Z,48.91
2022-08-17T17:46:31.338Z,48.78
2022-08-17T17:52:07.690Z,49.33
2022-08-17T17:57:33.830Z,50.18
2022-08-17T18:02:52.018Z,50.96
2022-08-17T18:08:21.837Z,51.10
2022-08-17T18:13:54.127Z,52.21
2022-08-17T18:18:57.888Z,52.66
2022-08-17T18:24:05.392Z,53.80
2022-08-17T18:29:28.177Z,54.30
2022-08-17T18:34:46.712Z,55.03
2022-08-17T18:45:54.187Z,56.94
2022-08-17T18:51:00.269Z,58.78
2022-08-17T18:56:27.088Z,59.59
2022-08-17T19:01:53.655Z,60.25
2022-08-17T19:07:23.699Z,60.69
2022-08-17T19:12:48.344Z,61.27
2022-08-17T19:17:57.043Z,60.89
2022-08-17T19:23:12.971Z,61.63
2022-08-17T19:28:23.048Z,61.82
2022-08-17T19:33:25.757Z,61.80
2022-08-17T19:38:46.022Z,61.57
2022-08-17T19:44:15.280Z,62.68
2022-08-17T19:49:40.807Z,62.96
2022-08-17T19:55:02.240Z,63.41
2022-08-17T20:00:15.041Z,64.18
2022-08-17T20:05:22.261Z,64.19
2022-08-17T20:10:38.705Z,65.40
2022-08-17T20:15:43.018Z,65.87
2022-08-17T20:20:56.966Z,66.33
2022-08-17T20:26:10.755Z,66.54
2022-08-17T20:31:50.611Z,67.56
2022-08-17T20:37:07.739Z,68.30
2022-08-17T20:42:31.458Z,68.44
2022-08-17T20:48:07.280Z,68.91
2022-08-17T20:53:13.420Z,69.79
2022-08-17T20:58:17.055Z,69.83
2022-08-17T21:03:25.283Z,70.14
2022-08-17T21:08:30.577Z,70.52
2022-08-17T21:14:10.757Z,70.93
2022-08-17T21:20:07.628Z,70.63
2022-08-17T21:25:25.632Z,70.35
2022-08-17T21:30:27.867Z,70.42
2022-08-17T21:35:48.018Z,70.71
2022-08-17T21:40:53.188Z,70.29
2022-08-17T21:45:59.564Z,70.28
2022-08-17T21:51:19.008Z,70.02
2022-08-17T21:56:30.434Z,68.85
2022-08-17T22:01:35.597Z,68.02
2022-08-17T22:06:56.922Z,66.91
2022-08-17T22:12:11.278Z,66.35
2022-08-17T22:17:19.051Z,66.40
2022-08-17T22:22:34.355Z,66.66
2022-08-17T22:27:57.322Z,66.91
2022-08-17T22:33:00.926Z,66.93
2022-08-17T22:38:20.632Z,67.61
2022-08-17T22:43:28.556Z,67.36
2022-08-17T22:48:31.249Z,67.40
2022-08-17T22:53:53.791Z,67.93
2022-08-17T22:59:16.361Z,69.12
2022-08-17T23:04:35.365Z,70.70
2022-08-17T23:09:37.051Z,71.56
2022-08-17T23:14:41.214Z,73.11
2022-08-17T23:19:42.945Z,73.70
2022-08-17T23:24:48.971Z,75.00
2022-08-17T23:29:50.593Z,76.83
2022-08-17T23:34:52.135Z,77.80
2022-08-17T23:39:53.718Z,78.87
2022-08-17T23:44:55.827Z,79.59
2022-08-17T23:49:57.444Z,81.15
2022-08-17T23:55:05.344Z,81.69
